createdAt,value
2019-06-01T00:01:07.594Z,8.53
2019-06-01T00:03:38.119Z,8.98
2019-06-01T00:06:07.714Z,11.15
2019-06-01T00:08:37.149Z,7.60
2019-06-01T00:11:06.610Z,10.55
2019-06-01T00:13:37.598Z,5.67
2019-06-01T00:16:07.055Z,8.30
2019-06-01T00:18:36.504Z,7.78
2019-06-01T00:21:06.834Z,9.33
2019-06-01T00:23:36.287Z,6.87
2019-06-01T00:26:05.803Z,8.00
2019-06-01T00:28:35.236Z,7.55
2019-06-01T00:31:04.705Z,6.03
2019-06-01T00:33:34.219Z,6.72
2019-06-01T00:36:03.654Z,6.62
2019-06-01T00:38:33.101Z,7.25
2019-06-01T00:41:02.566Z,9.65
2019-06-01T00:43:32.083Z,7.00
2019-06-01T00:46:01.549Z,7.25
2019-06-01T00:48:31.101Z,10.65
2019-06-01T00:51:01.222Z,7.35
2019-06-01T00:53:30.659Z,8.18
2019-06-01T00:56:00.091Z,8.95
2019-06-01T00:58:29.562Z,7.75
2019-06-01T01:00:58.997Z,8.38
2019-06-01T01:03:28.445Z,8.70
2019-06-01T01:05:57.902Z,7.42
2019-06-01T01:08:27.367Z,6.05
2019-06-01T01:11:02.474Z,9.23
2019-06-01T01:13:31.929Z,7.22
2019-06-01T01:16:01.705Z,8.23
2019-06-01T01:18:31.735Z,6.53
2019-06-01T01:21:01.267Z,7.50
2019-06-01T01:23:30.741Z,9.23
2019-06-01T01:26:00.178Z,10.53
2019-06-01T01:28:29.623Z,7.95
2019-06-01T01:31:12.368Z,10.10
2019-06-01T01:33:32.802Z,7.92
2019-06-01T01:36:02.267Z,8.83
2019-06-01T01:38:31.703Z,7.53
2019-06-01T01:41:01.154Z,11.35
2019-06-01T01:43:30.616Z,8.43
2019-06-01T01:46:00.052Z,7.60
2019-06-01T01:48:29.515Z,8.25
2019-06-01T01:50:58.972Z,12.07
2019-06-01T01:53:28.449Z,8.05
2019-06-01T01:55:58.847Z,11.12
2019-06-01T01:58:28.476Z,8.80
2019-06-01T02:00:58.547Z,10.15
2019-06-01T02:03:29.474Z,10.25
2019-06-01T02:05:59.176Z,9.20
2019-06-01T02:08:28.739Z,9.95
2019-06-01T02:11:02.510Z,13.30
2019-06-01T02:13:32.118Z,9.18
2019-06-01T02:16:02.601Z,9.43
2019-06-01T02:18:32.198Z,9.48
2019-06-01T02:21:02.701Z,8.95
2019-06-01T02:23:32.429Z,11.95
2019-06-01T02:26:03.177Z,8.90
2019-06-01T02:28:32.858Z,9.20
2019-06-01T02:31:03.903Z,11.05
2019-06-01T02:33:33.640Z,10.13
2019-06-01T02:36:05.040Z,9.70
2019-06-01T02:38:34.274Z,9.33
2019-06-01T02:41:05.508Z,8.35
2019-06-01T02:43:34.879Z,8.15
2019-06-01T02:46:05.496Z,12.23
2019-06-01T02:48:35.586Z,9.80
2019-06-01T02:51:05.549Z,10.98
2019-06-01T02:53:35.019Z,9.38
2019-06-01T02:56:04.462Z,10.18
2019-06-01T02:58:33.896Z,12.82
2019-06-01T03:01:08.069Z,10.50
2019-06-01T03:03:37.611Z,10.72
2019-06-01T03:06:08.678Z,13.22
2019-06-01T03:08:38.862Z,9.88
2019-06-01T03:11:10.026Z,9.73
2019-06-01T03:13:42.717Z,14.20
2019-06-01T03:16:14.085Z,10.35
2019-06-01T03:18:45.333Z,9.55
2019-06-01T03:21:18.922Z,11.85
2019-06-01T03:23:50.736Z,12.78
2019-06-01T03:26:21.877Z,10.63
2019-06-01T03:28:53.551Z,11.63
2019-06-01T03:31:23.015Z,11.93
2019-06-01T03:33:52.480Z,15.58
2019-06-01T03:36:22.061Z,11.75
2019-06-01T03:38:51.608Z,10.43
2019-06-01T03:41:21.382Z,13.00
2019-06-01T03:43:50.828Z,10.88
2019-06-01T03:46:20.272Z,12.40
2019-06-01T03:48:49.895Z,9.40
2019-06-01T03:51:19.336Z,12.35
2019-06-01T03:53:48.778Z,15.58
2019-06-01T03:56:18.220Z,14.33
2019-06-01T03:58:47.688Z,10.63
2019-06-01T04:01:17.122Z,11.30
2019-06-01T04:03:46.609Z,10.75
2019-06-01T04:06:16.065Z,9.40
2019-06-01T04:08:45.527Z,9.88
2019-06-01T04:11:14.993Z,10.58
2019-06-01T04:13:44.450Z,10.48
2019-06-01T04:16:13.921Z,11.83
2019-06-01T04:18:43.435Z,11.30
2019-06-01T04:21:12.909Z,12.28
2019-06-01T04:23:42.366Z,10.15
2019-06-01T04:26:12.316Z,13.98
2019-06-01T04:28:41.866Z,11.35
2019-06-01T04:31:12.722Z,8.43
2019-06-01T04:33:42.282Z,11.95
2019-06-01T04:36:11.738Z,9.15
2019-06-01T04:38:41.196Z,15.58
2019-06-01T04:41:11.973Z,11.25
2019-06-01T04:43:41.562Z,12.98
2019-06-01T04:46:12.245Z,11.55
2019-06-01T04:48:41.955Z,7.80
2019-06-01T04:51:12.143Z,10.18
2019-06-01T04:53:42.748Z,11.35
2019-06-01T04:56:13.093Z,7.62
2019-06-01T04:58:42.703Z,9.88
2019-06-01T05:01:13.046Z,8.73
2019-06-01T05:03:42.597Z,7.45
2019-06-01T05:06:13.359Z,11.53
2019-06-01T05:08:42.961Z,10.08
2019-06-01T05:11:13.447Z,9.08
2019-06-01T05:13:43.012Z,7.62
2019-06-01T05:16:13.421Z,7.40
2019-06-01T05:18:43.661Z,7.28
2019-06-01T05:21:13.132Z,8.65
2019-06-01T05:23:42.837Z,6.53
2019-06-01T05:26:13.153Z,6.47
2019-06-01T05:28:42.870Z,4.28
2019-06-01T05:31:14.953Z,6.47
2019-06-01T05:33:43.503Z,9.25
2019-06-01T05:36:14.162Z,7.17
2019-06-01T05:38:43.756Z,6.92
2019-06-01T05:41:13.648Z,7.87
2019-06-01T05:43:44.322Z,4.78
2019-06-01T05:46:14.066Z,5.00
2019-06-01T05:48:43.583Z,5.17
2019-06-01T05:51:15.566Z,5.83
2019-06-01T05:53:44.227Z,3.65
2019-06-01T05:56:14.781Z,5.40
2019-06-01T05:58:44.324Z,5.87
2019-06-01T06:01:14.686Z,4.33
2019-06-01T06:03:44.250Z,2.77
2019-06-01T06:06:13.857Z,3.70
2019-06-01T06:08:43.312Z,3.67
2019-06-01T06:11:12.939Z,3.27
2019-06-01T06:13:42.417Z,3.87
2019-06-01T06:16:11.852Z,6.30
2019-06-01T06:18:41.293Z,2.85
2019-06-01T06:21:11.887Z,4.83
2019-06-01T06:23:41.362Z,4.17
2019-06-01T06:26:10.819Z,5.75
2019-06-01T06:28:40.261Z,4.45
2019-06-01T06:31:09.729Z,4.85
2019-06-01T06:33:39.165Z,2.40
2019-06-01T06:36:08.659Z,5.15
2019-06-01T06:38:38.103Z,4.35
2019-06-01T06:41:07.541Z,4.20
2019-06-01T06:43:36.985Z,3.75
2019-06-01T06:46:06.537Z,2.55
2019-06-01T06:48:36.019Z,3.87
2019-06-01T06:51:06.930Z,3.75
2019-06-01T06:53:36.391Z,3.77
2019-06-01T06:56:05.936Z,4.60
2019-06-01T06:58:35.407Z,4.72
2019-06-01T07:01:05.654Z,3.55
2019-06-01T07:03:35.093Z,5.15
2019-06-01T07:06:05.069Z,4.08
2019-06-01T07:08:34.550Z,3.33
2019-06-01T07:11:04.006Z,4.28
2019-06-01T07:13:33.456Z,4.22
2019-06-01T07:16:03.969Z,3.17
2019-06-01T07:18:33.529Z,4.12
2019-06-01T07:21:02.970Z,2.50
2019-06-01T07:23:32.445Z,4.33
2019-06-01T07:26:01.879Z,4.15
2019-06-01T07:28:32.371Z,4.10
2019-06-01T07:31:01.995Z,3.15
2019-06-01T07:33:32.639Z,6.67
2019-06-01T07:36:02.218Z,3.83
2019-06-01T07:38:33.157Z,3.27
2019-06-01T07:41:02.815Z,4.17
2019-06-01T07:43:33.238Z,6.50
2019-06-01T07:46:02.805Z,3.58
2019-06-01T07:48:33.429Z,4.75
2019-06-01T07:51:02.971Z,5.20
2019-06-01T07:53:32.423Z,4.95
2019-06-01T07:56:01.894Z,5.17
2019-06-01T07:58:31.390Z,6.50
2019-06-01T08:01:02.105Z,6.70
2019-06-01T08:03:34.672Z,6.40
2019-06-01T08:06:02.722Z,5.83
2019-06-01T08:08:32.214Z,5.90
2019-06-01T08:11:01.635Z,4.30
2019-06-01T08:13:33.945Z,4.12
2019-06-01T08:16:02.271Z,4.75
2019-06-01T08:18:32.241Z,4.58
2019-06-01T08:21:01.800Z,5.15
2019-06-01T08:23:32.500Z,6.75
2019-06-01T08:26:02.118Z,6.85
2019-06-01T08:28:32.664Z,6.80
2019-06-01T08:31:02.268Z,6.92
2019-06-01T08:33:33.572Z,4.22
2019-06-01T08:36:02.907Z,7.20
2019-06-01T08:38:33.675Z,5.85
2019-06-01T08:41:03.330Z,6.47
2019-06-01T08:43:33.941Z,6.67
2019-06-01T08:46:03.561Z,7.42
2019-06-01T08:48:34.077Z,8.33
2019-06-01T08:51:03.681Z,7.65
2019-06-01T08:53:34.243Z,7.65
2019-06-01T08:56:03.826Z,10.72
2019-06-01T08:58:34.583Z,7.58
2019-06-01T09:01:04.403Z,10.03
2019-06-01T09:03:35.203Z,6.65
2019-06-01T09:06:05.251Z,6.15
2019-06-01T09:08:35.173Z,6.72
2019-06-01T09:11:04.894Z,7.10
2019-06-01T09:13:35.492Z,9.65
2019-06-01T09:16:05.979Z,5.53
2019-06-01T09:18:35.880Z,5.72
2019-06-01T09:21:05.584Z,8.13
2019-06-01T09:23:36.985Z,4.30
2019-06-01T09:26:06.167Z,9.08
2019-06-01T09:28:36.192Z,7.17
2019-06-01T09:31:05.836Z,6.83
2019-06-01T09:33:36.853Z,4.97
2019-06-01T09:36:06.499Z,6.53
2019-06-01T09:38:36.104Z,5.20
2019-06-01T09:41:05.836Z,5.92
2019-06-01T09:43:35.273Z,6.87
2019-06-01T09:46:04.903Z,5.17
2019-06-01T09:48:35.634Z,6.50
2019-06-01T09:51:05.225Z,7.80
2019-06-01T09:53:35.974Z,6.62
2019-06-01T09:56:05.887Z,6.42
2019-06-01T09:58:36.772Z,7.08
2019-06-01T10:01:06.420Z,7.15
2019-06-01T10:03:36.480Z,5.62
2019-06-01T10:06:06.245Z,5.60
2019-06-01T10:08:36.154Z,6.28
2019-06-01T10:11:05.723Z,6.22
2019-06-01T10:13:36.390Z,9.05
2019-06-01T10:16:05.994Z,7.35
2019-06-01T10:18:36.933Z,6.28
2019-06-01T10:21:06.479Z,8.40
2019-06-01T10:23:36.509Z,6.30
2019-06-01T10:26:06.223Z,7.22
2019-06-01T10:28:35.811Z,7.10
2019-06-01T10:31:05.291Z,7.25
2019-06-01T10:33:34.927Z,10.05
2019-06-01T10:36:19.317Z,7.70
2019-06-01T10:38:35.680Z,7.95
2019-06-01T10:41:05.131Z,7.37
2019-06-01T10:43:35.597Z,6.47
2019-06-01T10:46:05.402Z,8.00
2019-06-01T10:48:36.006Z,6.95
2019-06-01T10:51:05.801Z,7.75
2019-06-01T10:53:36.358Z,8.33
2019-06-01T10:56:05.874Z,5.85
2019-06-01T10:58:52.466Z,10.68
2019-06-01T11:01:06.510Z,7.25
2019-06-01T11:03:36.692Z,6.78
2019-06-01T11:06:06.201Z,6.25
2019-06-01T11:08:37.049Z,8.70
2019-06-01T11:11:06.712Z,8.18
2019-06-01T11:13:37.066Z,6.97
2019-06-01T11:16:06.589Z,7.87
2019-06-01T11:18:37.359Z,6.22
2019-06-01T11:21:07.128Z,5.28
2019-06-01T11:23:37.450Z,7.70
2019-06-01T11:26:06.986Z,5.25
2019-06-01T11:28:38.112Z,3.55
2019-06-01T11:31:07.744Z,4.78
2019-06-01T11:33:38.201Z,5.80
2019-06-01T11:36:07.720Z,5.45
2019-06-01T11:38:38.368Z,6.75
2019-06-01T11:41:08.354Z,5.62
2019-06-01T11:43:38.622Z,5.97
2019-06-01T11:46:08.133Z,5.80
2019-06-01T11:48:39.087Z,7.42
2019-06-01T11:51:08.621Z,6.80
2019-06-01T11:53:39.877Z,6.12
2019-06-01T11:56:09.223Z,10.08
2019-06-01T11:58:39.249Z,6.47
2019-06-01T12:01:08.810Z,8.35
2019-06-01T12:03:39.597Z,9.55
2019-06-01T12:06:09.256Z,5.92
2019-06-01T12:08:39.886Z,5.45
2019-06-01T12:11:09.445Z,4.12
2019-06-01T12:13:40.052Z,7.60
2019-06-01T12:16:09.594Z,7.85
2019-06-01T12:18:39.037Z,7.03
2019-06-01T12:21:09.604Z,5.80
2019-06-01T12:23:39.094Z,8.83
2019-06-01T12:26:08.525Z,7.60
2019-06-01T12:28:39.394Z,6.70
2019-06-01T12:31:09.006Z,7.25
2019-06-01T12:33:39.800Z,9.10
2019-06-01T12:36:09.287Z,9.48
2019-06-01T12:38:40.365Z,7.20
2019-06-01T12:41:09.799Z,12.65
2019-06-01T12:43:39.484Z,9.78
2019-06-01T12:46:08.912Z,10.75
2019-06-01T12:48:38.379Z,11.53
2019-06-01T12:51:07.891Z,11.18
2019-06-01T12:53:37.357Z,13.50
2019-06-01T12:56:06.890Z,9.98
2019-06-01T12:58:36.386Z,10.88
2019-06-01T13:01:05.858Z,12.63
2019-06-01T13:03:35.281Z,10.10
2019-06-01T13:06:04.789Z,9.33
2019-06-01T13:08:34.194Z,10.53
2019-06-01T13:11:03.659Z,9.50
2019-06-01T13:13:33.088Z,8.10
2019-06-01T13:16:02.528Z,7.92
2019-06-01T13:18:31.997Z,8.28
2019-06-01T13:21:01.467Z,8.90
2019-06-01T13:23:30.894Z,9.30
2019-06-01T13:26:00.349Z,10.25
2019-06-01T13:28:37.926Z,11.73
2019-06-01T13:31:01.052Z,13.60
2019-06-01T13:33:30.501Z,10.60
2019-06-01T13:35:59.958Z,10.60
2019-06-01T13:38:29.435Z,14.15
2019-06-01T13:40:58.904Z,10.63
2019-06-01T13:43:28.384Z,13.40
2019-06-01T13:45:57.857Z,11.93
2019-06-01T13:48:27.305Z,9.53
2019-06-01T13:50:56.797Z,10.60
2019-06-01T13:53:26.273Z,18.65
2019-06-01T13:55:55.700Z,12.20
2019-06-01T13:58:25.171Z,10.75
2019-06-01T14:00:56.561Z,10.38
2019-06-01T14:03:26.018Z,14.43
2019-06-01T14:05:55.452Z,12.93
2019-06-01T14:08:28.926Z,12.07
2019-06-01T14:10:56.129Z,11.50
2019-06-01T14:13:25.597Z,9.80
2019-06-01T14:15:56.417Z,8.75
2019-06-01T14:18:25.781Z,15.30
2019-06-01T14:20:56.923Z,14.13
2019-06-01T14:23:26.387Z,15.55
2019-06-01T14:25:56.405Z,13.78
2019-06-01T14:28:25.933Z,19.92
2019-06-01T14:30:56.667Z,13.53
2019-06-01T14:33:26.142Z,14.10
2019-06-01T14:35:56.645Z,16.35
2019-06-01T14:38:26.183Z,13.80
2019-06-01T14:41:01.655Z,14.30
2019-06-01T14:43:31.126Z,13.25
2019-06-01T14:46:00.557Z,12.85
2019-06-01T14:48:30.039Z,11.95
2019-06-01T14:51:01.151Z,13.20
2019-06-01T14:53:30.595Z,13.05
2019-06-01T14:56:00.056Z,11.53
2019-06-01T14:58:29.523Z,11.97
2019-06-01T15:00:58.973Z,13.48
2019-06-01T15:03:28.438Z,14.73
2019-06-01T15:05:58.607Z,10.55
2019-06-01T15:08:28.221Z,11.18
2019-06-01T15:10:58.904Z,8.65
2019-06-01T15:13:28.343Z,7.55
2019-06-01T15:15:57.863Z,7.95
2019-06-01T15:18:27.316Z,11.10
2019-06-01T15:21:02.893Z,19.73
2019-06-01T15:23:32.347Z,7.50
2019-06-01T15:26:02.895Z,6.95
2019-06-01T15:28:32.498Z,8.10
2019-06-01T15:33:36.290Z,11.30
2019-06-01T15:36:05.910Z,12.00
2019-06-01T15:38:36.376Z,7.12
2019-06-01T15:41:05.949Z,6.30
2019-06-01T15:43:35.486Z,7.10
2019-06-01T15:46:04.939Z,10.95
2019-06-01T15:48:34.371Z,6.67
2019-06-01T15:51:07.159Z,7.47
2019-06-01T15:53:35.010Z,10.58
2019-06-01T15:56:04.554Z,6.87
2019-06-01T15:58:34.072Z,5.78
2019-06-01T16:01:03.520Z,6.75
2019-06-01T16:03:34.215Z,23.40
2019-06-01T16:06:04.176Z,30.20
2019-06-01T16:08:33.618Z,40.23
2019-06-01T16:11:05.966Z,8.40
2019-06-01T16:13:34.275Z,9.58
2019-06-01T16:16:05.208Z,7.15
2019-06-01T16:18:34.816Z,58.80
2019-06-01T16:21:04.382Z,29.18
2019-06-01T16:23:48.716Z,28.70
2019-06-01T16:26:15.433Z,7.25
2019-06-01T16:28:36.219Z,8.25
2019-06-01T16:31:05.653Z,4.10
2019-06-01T16:33:35.112Z,3.60
2019-06-01T16:36:05.621Z,8.13
2019-06-01T16:38:35.168Z,5.00
2019-06-01T16:41:05.548Z,3.45
2019-06-01T16:43:35.015Z,6.12
2019-06-01T16:46:05.920Z,3.25
2019-06-01T16:48:35.479Z,4.37
2019-06-01T16:51:05.894Z,3.87
2019-06-01T16:53:35.449Z,4.12
2019-06-01T16:56:04.907Z,4.08
2019-06-01T16:58:34.365Z,6.35
2019-06-01T17:01:04.997Z,4.85
2019-06-01T17:03:34.749Z,3.95
2019-06-01T17:06:04.822Z,3.98
2019-06-01T17:08:34.346Z,3.72
2019-06-01T17:11:04.840Z,8.63
2019-06-01T17:13:34.364Z,5.03
2019-06-01T17:16:05.070Z,2.85
2019-06-01T17:18:34.728Z,2.30
2019-06-01T17:21:05.504Z,2.47
2019-06-01T17:23:35.011Z,2.10
2019-06-01T17:26:04.910Z,2.95
2019-06-01T17:28:35.787Z,3.45
2019-06-01T17:31:06.410Z,3.62
2019-06-01T17:33:35.897Z,2.20
2019-06-01T17:36:06.737Z,2.52
2019-06-01T17:38:36.391Z,2.72
2019-06-01T17:41:06.372Z,3.37
2019-06-01T17:43:35.925Z,1.82
2019-06-01T17:46:05.440Z,2.58
2019-06-01T17:48:34.887Z,3.85
2019-06-01T17:51:04.810Z,4.87
2019-06-01T17:53:34.231Z,5.35
2019-06-01T17:56:03.919Z,6.55
2019-06-01T17:58:33.661Z,4.20
2019-06-01T18:01:04.267Z,4.17
2019-06-01T18:03:34.068Z,2.67
2019-06-01T18:06:03.740Z,4.87
2019-06-01T18:08:33.257Z,2.22
2019-06-01T18:11:03.783Z,4.17
2019-06-01T18:13:33.421Z,4.53
2019-06-01T18:16:03.383Z,5.55
2019-06-01T18:18:34.087Z,2.95
2019-06-01T18:21:04.145Z,3.45
2019-06-01T18:23:33.650Z,5.00
2019-06-01T18:26:04.969Z,5.72
2019-06-01T18:28:34.306Z,4.80
2019-06-01T18:31:04.578Z,4.95
2019-06-01T18:33:34.062Z,3.95
2019-06-01T18:36:03.690Z,9.28
2019-06-01T18:38:33.169Z,4.97
2019-06-01T18:41:10.768Z,6.10
2019-06-01T18:43:36.799Z,3.52
2019-06-01T18:46:06.388Z,5.85
2019-06-01T18:48:35.902Z,8.93
2019-06-01T18:51:06.054Z,6.78
2019-06-01T18:53:35.550Z,4.83
2019-06-01T18:56:06.031Z,5.30
2019-06-01T18:58:35.587Z,7.33
2019-06-01T19:01:06.372Z,4.10
2019-06-01T19:03:35.937Z,5.40
2019-06-01T19:06:05.459Z,4.22
2019-06-01T19:08:34.965Z,6.87
2019-06-01T19:11:05.733Z,7.87
2019-06-01T19:13:35.248Z,13.80
2019-06-01T19:16:05.782Z,14.33
2019-06-01T19:18:35.575Z,14.40
2019-06-01T19:21:06.328Z,14.20
2019-06-01T19:23:36.226Z,17.48
2019-06-01T19:26:10.157Z,16.12
2019-06-01T19:28:37.063Z,16.23
2019-06-01T19:31:06.859Z,17.15
2019-06-01T19:33:36.403Z,17.05
2019-06-01T19:36:06.918Z,15.90
2019-06-01T19:38:38.162Z,19.27
2019-06-01T19:41:07.644Z,19.70
2019-06-01T19:43:37.083Z,17.75
2019-06-01T19:46:07.617Z,15.43
2019-06-01T19:48:37.225Z,15.70
2019-06-01T19:51:06.752Z,19.57
2019-06-01T19:53:36.216Z,21.20
2019-06-01T19:56:05.744Z,15.75
2019-06-01T19:58:35.224Z,17.35
2019-06-01T20:01:05.030Z,18.73
2019-06-01T20:03:34.495Z,20.55
2019-06-01T20:06:04.029Z,16.97
2019-06-01T20:08:33.469Z,21.68
2019-06-01T20:11:02.917Z,19.82
2019-06-01T20:13:32.383Z,22.85
2019-06-01T20:16:01.825Z,20.72
2019-06-01T20:18:31.312Z,22.02
2019-06-01T20:21:01.678Z,22.17
2019-06-01T20:23:31.142Z,19.67
2019-06-01T20:26:00.596Z,24.87
2019-06-01T20:28:30.049Z,21.00
2019-06-01T20:31:01.566Z,22.75
2019-06-01T20:33:35.108Z,22.90
2019-06-01T20:36:04.653Z,20.32
2019-06-01T20:38:37.120Z,20.50
2019-06-01T20:41:06.569Z,19.92
2019-06-01T20:43:36.021Z,17.62
2019-06-01T20:46:05.735Z,18.85
2019-06-01T20:48:35.195Z,21.97
2019-06-01T20:51:04.758Z,20.97
2019-06-01T20:53:36.670Z,20.52
2019-06-01T20:56:06.113Z,20.37
2019-06-01T20:58:35.626Z,22.52
2019-06-01T21:01:05.239Z,21.05
2019-06-01T21:03:34.718Z,21.80
2019-06-01T21:06:04.168Z,19.85
2019-06-01T21:08:33.638Z,22.93
2019-06-01T21:11:03.102Z,20.05
2019-06-01T21:13:32.570Z,23.87
2019-06-01T21:16:02.007Z,20.60
2019-06-01T21:18:31.475Z,23.42
2019-06-01T21:21:00.928Z,23.57
2019-06-01T21:23:30.387Z,24.32
2019-06-01T21:25:59.903Z,24.47
2019-06-01T21:28:29.341Z,26.10
2019-06-01T21:31:03.255Z,22.85
2019-06-01T21:33:32.717Z,26.37
2019-06-01T21:36:02.165Z,24.43
2019-06-01T21:38:31.617Z,25.88
2019-06-01T21:41:02.726Z,24.27
2019-06-01T21:43:35.366Z,26.52
2019-06-01T21:46:03.401Z,24.12
2019-06-01T21:48:32.851Z,23.62
2019-06-01T21:51:02.802Z,25.95
2019-06-01T21:53:32.654Z,29.85
2019-06-01T21:56:02.118Z,32.33
2019-06-01T21:58:31.597Z,25.60
2019-06-01T22:01:02.840Z,22.85
2019-06-01T22:03:32.265Z,23.38
2019-06-01T22:06:01.725Z,23.25
2019-06-01T22:08:31.154Z,23.32
2019-06-01T22:11:00.611Z,27.42
2019-06-01T22:13:30.057Z,25.80
2019-06-01T22:15:59.500Z,23.92
2019-06-01T22:18:28.969Z,25.25
2019-06-01T22:21:01.317Z,20.45
2019-06-01T22:23:30.774Z,25.70
2019-06-01T22:26:00.279Z,27.90
2019-06-01T22:28:29.752Z,27.25
2019-06-01T22:31:03.490Z,25.62
2019-06-01T22:33:32.968Z,25.45
2019-06-01T22:36:02.409Z,22.65
2019-06-01T22:38:31.852Z,22.58
2019-06-01T22:41:01.312Z,22.90
2019-06-01T22:43:45.183Z,25.65
2019-06-01T22:46:01.958Z,28.52
2019-06-01T22:48:31.428Z,26.95
2019-06-01T22:51:03.410Z,27.95
2019-06-01T22:53:32.862Z,23.85
2019-06-01T22:56:02.321Z,23.62
2019-06-01T22:58:31.767Z,23.85
2019-06-01T23:01:01.223Z,22.00
2019-06-01T23:03:30.685Z,24.27
2019-06-01T23:06:00.237Z,25.17
2019-06-01T23:08:29.702Z,24.30
2019-06-01T23:10:59.174Z,22.30
2019-06-01T23:13:28.615Z,23.85
2019-06-01T23:15:58.080Z,23.47
2019-06-01T23:18:27.927Z,23.67
2019-06-01T23:20:59.685Z,25.40
2019-06-01T23:23:30.187Z,25.23
2019-06-01T23:25:59.706Z,23.38
2019-06-01T23:28:30.300Z,23.55
2019-06-01T23:31:01.074Z,25.77
2019-06-01T23:33:30.987Z,21.93
2019-06-01T23:36:00.445Z,23.05
2019-06-01T23:38:30.812Z,21.02
2019-06-01T23:41:03.341Z,24.77
2019-06-01T23:43:33.051Z,20.43
2019-06-01T23:46:02.506Z,21.80
2019-06-01T23:48:31.946Z,20.43
2019-06-01T23:51:04.095Z,20.40
2019-06-01T23:53:33.866Z,21.75
2019-06-01T23:56:03.396Z,21.97
2019-06-01T23:58:32.863Z,19.00
